createdAt,value
2022-09-21T00:01:39.004Z,96697.91
2022-09-21T00:04:07.186Z,96699.56
2022-09-21T00:06:36.171Z,96700.38
2022-09-21T00:09:05.363Z,96676.56
2022-09-21T00:11:34.613Z,96691.19
2022-09-21T00:14:07.314Z,96685.59
2022-09-21T00:16:36.085Z,96688.16
2022-09-21T00:19:04.784Z,96689.22
2022-09-21T00:21:33.174Z,96679.38
2022-09-21T00:24:03.749Z,96677.06
2022-09-21T00:26:34.369Z,96620.56
2022-09-21T00:29:04.803Z,96680.06
2022-09-21T00:31:33.398Z,96675.28
2022-09-21T00:34:03.649Z,96681.59
2022-09-21T00:36:31.921Z,96687.44
2022-09-21T00:39:02.153Z,96664.25
2022-09-21T00:41:31.556Z,96679.88
2022-09-21T00:44:24.919Z,96682.25
2022-09-21T00:46:54.473Z,96682.16
2022-09-21T00:49:23.059Z,96690.53
2022-09-21T00:51:53.284Z,96689.56
2022-09-21T00:54:26.163Z,96691.28
2022-09-21T00:56:55.606Z,96687.03
2022-09-21T00:59:29.945Z,96675.66
2022-09-21T01:01:59.706Z,96609.84
2022-09-21T01:04:28.784Z,96687.72
2022-09-21T01:06:57.567Z,96687.72
2022-09-21T01:09:25.606Z,96694.41
2022-09-21T01:12:08.929Z,96685.84
2022-09-21T01:14:54.733Z,96697.69
2022-09-21T01:17:31.890Z,96704.44
2022-09-21T01:20:23.123Z,96698.50
2022-09-21T01:23:04.293Z,96694.31
2022-09-21T01:25:39.292Z,96692.69
2022-09-21T01:28:20.949Z,96692.19
2022-09-21T01:30:51.013Z,96683.31
2022-09-21T01:33:24.003Z,96695.66
2022-09-21T01:35:57.675Z,96695.81
2022-09-21T01:38:28.348Z,96683.66
2022-09-21T01:41:00.308Z,96698.44
2022-09-21T01:43:33.232Z,96693.69
2022-09-21T01:46:05.362Z,96683.84
2022-09-21T01:48:35.956Z,96700.56
2022-09-21T01:51:06.427Z,96703.38
2022-09-21T01:53:37.621Z,96673.06
2022-09-21T01:56:11.152Z,96690.91
2022-09-21T01:58:42.750Z,96682.69
2022-09-21T02:01:15.542Z,96617.41
2022-09-21T02:03:46.410Z,96693.53
2022-09-21T02:06:15.010Z,96699.28
2022-09-21T02:08:43.119Z,96696.00
2022-09-21T02:11:12.108Z,96678.47
2022-09-21T02:13:41.620Z,96699.69
2022-09-21T02:16:29.655Z,96697.06
2022-09-21T02:19:11.312Z,96691.97
2022-09-21T02:21:48.011Z,96685.47
2022-09-21T02:24:24.655Z,96696.03
2022-09-21T02:27:00.533Z,96699.44
2022-09-21T02:29:33.529Z,96695.41
2022-09-21T02:32:06.378Z,96700.44
2022-09-21T02:34:38.621Z,96701.41
2022-09-21T02:37:10.733Z,96705.66
2022-09-21T02:39:42.352Z,96728.56
2022-09-21T02:42:13.105Z,96711.59
2022-09-21T02:44:43.025Z,96709.78
2022-09-21T02:47:15.879Z,96711.59
2022-09-21T02:49:47.071Z,96722.72
2022-09-21T02:52:17.392Z,96708.31
2022-09-21T02:54:48.575Z,96678.66
2022-09-21T02:57:18.614Z,96634.34
2022-09-21T02:59:46.785Z,96714.31
2022-09-21T03:02:16.621Z,96712.03
2022-09-21T03:04:47.703Z,96679.22
2022-09-21T03:07:16.122Z,96722.53
2022-09-21T03:09:44.336Z,96692.03
2022-09-21T03:12:12.444Z,96717.34
2022-09-21T03:14:40.499Z,96722.34
2022-09-21T03:17:09.025Z,96716.47
2022-09-21T03:19:38.537Z,96717.19
2022-09-21T03:22:06.489Z,96718.84
2022-09-21T03:24:46.715Z,96718.00
2022-09-21T03:27:14.823Z,96717.25
2022-09-21T03:29:43.067Z,96632.75
2022-09-21T03:32:11.481Z,96717.03
2022-09-21T03:34:40.935Z,96710.53
2022-09-21T03:37:10.049Z,96714.78
2022-09-21T03:39:38.120Z,96722.44
2022-09-21T03:42:06.340Z,96719.63
2022-09-21T03:44:34.356Z,96719.53
2022-09-21T03:47:02.323Z,96654.16
2022-09-21T03:49:31.095Z,96748.38
2022-09-21T03:52:01.057Z,96745.81
2022-09-21T03:54:29.112Z,96747.53
2022-09-21T03:56:57.058Z,96745.47
2022-09-21T03:59:25.107Z,96752.25
2022-09-21T04:01:53.100Z,96728.44
2022-09-21T04:04:21.719Z,96754.97
2022-09-21T04:06:49.789Z,96686.81
2022-09-21T04:09:19.224Z,96682.19
2022-09-21T04:11:48.275Z,96762.44
2022-09-21T04:14:17.517Z,96764.31
2022-09-21T04:16:45.593Z,96717.34
2022-09-21T04:19:14.062Z,96767.44
2022-09-21T04:21:42.123Z,96763.91
2022-09-21T04:24:10.249Z,96765.69
2022-09-21T04:26:41.171Z,96772.38
2022-09-21T04:29:11.128Z,96768.13
2022-09-21T04:31:39.330Z,96770.00
2022-09-21T04:34:07.374Z,96754.44
2022-09-21T04:36:36.800Z,96760.09
2022-09-21T04:39:05.978Z,96753.84
2022-09-21T04:41:34.729Z,96775.53
2022-09-21T04:44:04.439Z,96764.84
2022-09-21T04:46:32.774Z,96764.19
2022-09-21T04:49:01.006Z,96764.19
2022-09-21T04:51:29.034Z,96767.59
2022-09-21T04:53:57.247Z,96766.03
2022-09-21T04:56:26.179Z,96779.59
2022-09-21T04:58:54.359Z,96765.28
2022-09-21T05:01:23.839Z,96778.09
2022-09-21T05:03:52.722Z,96777.19
2022-09-21T05:06:21.168Z,96777.94
2022-09-21T05:09:06.708Z,96777.78
2022-09-21T05:11:34.830Z,96782.81
2022-09-21T05:14:03.140Z,96767.50
2022-09-21T05:16:32.553Z,96790.59
2022-09-21T05:19:00.499Z,96787.97
2022-09-21T05:21:28.534Z,96796.50
2022-09-21T05:23:57.452Z,96792.31
2022-09-21T05:26:25.622Z,96775.78
2022-09-21T05:28:54.384Z,96791.25
2022-09-21T05:31:36.279Z,96796.94
2022-09-21T05:34:08.311Z,96794.94
2022-09-21T05:36:44.756Z,96800.75
2022-09-21T05:39:13.309Z,96805.63
2022-09-21T05:41:41.951Z,96816.16
2022-09-21T05:44:11.840Z,96806.47
2022-09-21T05:46:54.065Z,96809.78
2022-09-21T05:49:29.160Z,96818.91
2022-09-21T05:52:01.090Z,96824.47
2022-09-21T05:54:40.120Z,96826.09
2022-09-21T05:57:13.229Z,96817.81
2022-09-21T05:59:55.689Z,96830.56
2022-09-21T06:02:37.061Z,96830.44
2022-09-21T06:05:08.792Z,96826.41
2022-09-21T06:07:36.886Z,96837.38
2022-09-21T06:10:05.675Z,96813.03
2022-09-21T06:12:34.881Z,96833.25
2022-09-21T06:15:02.956Z,96837.22
2022-09-21T06:17:33.869Z,96841.97
2022-09-21T06:20:03.068Z,96799.31
2022-09-21T06:22:31.192Z,96832.53
2022-09-21T06:24:59.248Z,96835.66
2022-09-21T06:27:28.978Z,96837.47
2022-09-21T06:29:57.250Z,96836.88
2022-09-21T06:32:25.292Z,96759.75
2022-09-21T06:34:54.811Z,96816.06
2022-09-21T06:37:23.070Z,96828.47
2022-09-21T06:39:51.247Z,96828.88
2022-09-21T06:42:19.447Z,96825.97
2022-09-21T06:44:47.589Z,96838.56
2022-09-21T06:47:15.712Z,96822.34
2022-09-21T06:49:43.806Z,96832.09
2022-09-21T06:52:13.334Z,96822.09
2022-09-21T06:54:42.445Z,96823.22
2022-09-21T06:57:10.558Z,96815.91
2022-09-21T06:59:38.714Z,96835.53
2022-09-21T07:02:07.208Z,96825.47
2022-09-21T07:04:36.102Z,96762.41
2022-09-21T07:07:05.920Z,96834.22
2022-09-21T07:12:26.309Z,96827.16
2022-09-21T07:14:54.329Z,96848.78
2022-09-21T07:17:22.385Z,96850.31
2022-09-21T07:19:50.601Z,96858.53
2022-09-21T07:22:18.729Z,96857.94
2022-09-21T07:24:48.119Z,96853.19
2022-09-21T07:27:16.311Z,96858.22
2022-09-21T07:29:44.426Z,96853.31
2022-09-21T07:32:14.023Z,96867.16
2022-09-21T07:34:42.117Z,96851.69
2022-09-21T07:37:10.276Z,96873.22
2022-09-21T07:39:39.007Z,96871.44
2022-09-21T07:42:08.821Z,96876.28
2022-09-21T07:44:36.987Z,96871.97
2022-09-21T07:47:05.119Z,96874.22
2022-09-21T07:49:33.179Z,96876.38
2022-09-21T07:52:04.870Z,96871.03
2022-09-21T07:54:34.520Z,96888.84
2022-09-21T07:57:19.870Z,96883.94
2022-09-21T07:59:49.366Z,96906.53
2022-09-21T08:02:17.593Z,96889.28
2022-09-21T08:04:46.334Z,96882.88
2022-09-21T08:07:15.683Z,96879.66
2022-09-21T08:09:49.643Z,96893.63
2022-09-21T08:12:21.204Z,96885.03
2022-09-21T08:15:01.745Z,96874.72
2022-09-21T08:17:31.806Z,96865.72
2022-09-21T08:19:59.834Z,96883.63
2022-09-21T08:22:30.830Z,96871.22
2022-09-21T08:24:58.875Z,96880.69
2022-09-21T08:27:34.403Z,96873.19
2022-09-21T08:30:04.083Z,96878.19
2022-09-21T08:32:50.309Z,96883.00
2022-09-21T08:35:19.419Z,96870.28
2022-09-21T08:37:47.635Z,96856.47
2022-09-21T08:40:16.820Z,96874.72
2022-09-21T08:42:52.528Z,96876.25
2022-09-21T08:45:22.751Z,96860.31
2022-09-21T08:47:54.773Z,96875.91
2022-09-21T08:50:33.952Z,96858.81
2022-09-21T08:53:07.800Z,96861.84
2022-09-21T08:55:35.800Z,96875.09
2022-09-21T08:58:03.830Z,96873.09
2022-09-21T09:00:35.936Z,96872.38
2022-09-21T09:03:40.049Z,96875.31
2022-09-21T09:06:13.162Z,96861.59
2022-09-21T09:09:08.773Z,96873.88
2022-09-21T09:11:48.323Z,96877.84
2022-09-21T09:14:31.098Z,96862.00
2022-09-21T09:17:12.899Z,96858.06
2022-09-21T09:19:44.954Z,96870.28
2022-09-21T09:22:16.670Z,96861.41
2022-09-21T09:24:48.743Z,96874.66
2022-09-21T09:27:21.169Z,96796.69
2022-09-21T09:29:58.349Z,96871.84
2022-09-21T09:32:39.745Z,96878.22
2022-09-21T09:35:18.170Z,96874.28
2022-09-21T09:37:47.096Z,96858.00
2022-09-21T09:40:17.324Z,96874.63
2022-09-21T09:42:59.252Z,96871.28
2022-09-21T09:45:39.743Z,96873.50
2022-09-21T09:48:17.637Z,96870.78
2022-09-21T09:50:45.826Z,96786.63
2022-09-21T09:53:16.418Z,96856.63
2022-09-21T09:55:46.805Z,96865.34
2022-09-21T09:58:19.692Z,96864.09
2022-09-21T10:00:49.298Z,96853.88
2022-09-21T10:03:21.869Z,96868.69
2022-09-21T10:05:53.744Z,96868.22
2022-09-21T10:08:42.248Z,96828.38
2022-09-21T10:11:11.872Z,96863.44
2022-09-21T10:13:41.120Z,96852.06
2022-09-21T10:16:14.465Z,96864.25
2022-09-21T10:18:47.396Z,96835.72
2022-09-21T10:21:21.205Z,96845.56
2022-09-21T10:23:50.990Z,96824.19
2022-09-21T10:26:21.123Z,96843.25
2022-09-21T10:29:00.399Z,96833.41
2022-09-21T10:31:30.014Z,96859.63
2022-09-21T10:34:13.661Z,96844.06
2022-09-21T10:36:42.253Z,96842.31
2022-09-21T10:39:20.125Z,96843.69
2022-09-21T10:41:53.050Z,96848.16
2022-09-21T10:44:23.788Z,96824.63
2022-09-21T10:46:52.537Z,96829.16
2022-09-21T10:49:27.171Z,96752.28
2022-09-21T10:51:57.870Z,96848.19
2022-09-21T10:54:29.563Z,96835.34
2022-09-21T10:57:00.790Z,96830.41
2022-09-21T10:59:30.517Z,96836.06
2022-09-21T11:02:00.397Z,96834.78
2022-09-21T11:04:44.671Z,96836.34
2022-09-21T11:07:20.158Z,96838.22
2022-09-21T11:09:51.899Z,96838.53
2022-09-21T11:12:40.904Z,96842.03
2022-09-21T11:15:19.479Z,96831.34
2022-09-21T11:17:50.502Z,96810.81
2022-09-21T11:20:28.102Z,96828.63
2022-09-21T11:23:05.424Z,96837.25
2022-09-21T11:25:42.541Z,96842.56
2022-09-21T11:28:16.288Z,96832.38
2022-09-21T11:30:55.659Z,96835.88
2022-09-21T11:33:35.225Z,96828.75
2022-09-21T11:36:10.609Z,96827.81
2022-09-21T11:38:46.149Z,96831.78
2022-09-21T11:41:22.980Z,96834.38
2022-09-21T11:44:09.140Z,96817.97
2022-09-21T11:46:44.233Z,96751.53
2022-09-21T11:49:33.548Z,96826.66
2022-09-21T11:52:20.828Z,96829.94
2022-09-21T11:55:13.744Z,96805.13
2022-09-21T11:57:45.824Z,96814.13
2022-09-21T12:00:17.417Z,96816.59
2022-09-21T12:03:08.879Z,96818.44
2022-09-21T12:05:40.507Z,96798.78
2022-09-21T12:08:26.866Z,96812.38
2022-09-21T12:11:01.211Z,96811.41
2022-09-21T12:13:34.101Z,96806.47
2022-09-21T12:16:05.343Z,96804.50
2022-09-21T12:18:36.854Z,96813.88
2022-09-21T12:21:12.528Z,96787.88
2022-09-21T12:23:44.500Z,96799.47
2022-09-21T12:26:15.454Z,96775.47
2022-09-21T12:28:47.745Z,96803.13
2022-09-21T12:31:20.994Z,96793.56
2022-09-21T12:33:52.851Z,96746.44
2022-09-21T12:36:23.437Z,96801.94
2022-09-21T12:38:56.929Z,96817.34
2022-09-21T12:41:33.237Z,96810.00
2022-09-21T12:44:05.951Z,96779.19
2022-09-21T12:46:39.273Z,96786.53
2022-09-21T12:49:14.271Z,96802.88
2022-09-21T12:51:44.416Z,96799.88
2022-09-21T12:54:20.925Z,96791.19
2022-09-21T12:56:52.904Z,96797.97
2022-09-21T12:59:31.397Z,96791.06
2022-09-21T13:02:12.515Z,96775.88
2022-09-21T13:04:50.565Z,96796.38
2022-09-21T13:07:35.262Z,96789.44
2022-09-21T13:10:13.949Z,96776.63
2022-09-21T13:12:44.921Z,96696.00
2022-09-21T13:15:21.966Z,96794.63
2022-09-21T13:18:00.085Z,96793.38
2022-09-21T13:20:28.574Z,96787.13
2022-09-21T13:23:00.822Z,96786.47
2022-09-21T13:25:32.580Z,96703.91
2022-09-21T13:28:19.735Z,96788.22
2022-09-21T13:30:49.274Z,96781.19
2022-09-21T13:33:40.041Z,96783.19
2022-09-21T13:36:32.483Z,96787.72
2022-09-21T13:39:18.852Z,96780.31
2022-09-21T13:42:04.098Z,96786.25
2022-09-21T13:44:43.745Z,96780.84
2022-09-21T13:47:14.332Z,96779.66
2022-09-21T13:49:50.895Z,96773.13
2022-09-21T13:52:27.903Z,96780.69
2022-09-21T13:54:59.299Z,96752.00
2022-09-21T13:57:33.351Z,96703.28
2022-09-21T14:00:23.045Z,96760.91
2022-09-21T14:02:58.918Z,96751.84
2022-09-21T14:05:31.772Z,96758.59
2022-09-21T14:08:03.391Z,96758.28
2022-09-21T14:10:33.595Z,96750.19
2022-09-21T14:13:03.848Z,96743.84
2022-09-21T14:15:40.334Z,96737.56
2022-09-21T14:18:34.659Z,96651.53
2022-09-21T14:21:17.663Z,96704.25
2022-09-21T14:24:28.199Z,96744.31
2022-09-21T14:27:03.647Z,96754.00
2022-09-21T14:29:40.877Z,96733.31
2022-09-21T14:32:19.270Z,96732.72
2022-09-21T14:34:49.594Z,96750.47
2022-09-21T14:37:27.491Z,96739.28
2022-09-21T14:39:56.037Z,96754.72
2022-09-21T14:42:29.200Z,96733.72
2022-09-21T14:45:01.399Z,96756.13
2022-09-21T14:47:51.839Z,96667.00
2022-09-21T14:50:31.863Z,96746.53
2022-09-21T14:53:41.205Z,96740.19
2022-09-21T14:56:22.546Z,96744.47
2022-09-21T14:58:59.393Z,96744.03
2022-09-21T15:01:41.573Z,96727.34
2022-09-21T15:04:24.236Z,96737.97
2022-09-21T15:07:15.674Z,96735.09
2022-09-21T15:10:33.272Z,96734.34
2022-09-21T15:13:09.631Z,96728.34
2022-09-21T15:15:40.659Z,96700.41
2022-09-21T15:18:20.176Z,96736.50
2022-09-21T15:21:01.312Z,96731.31
2022-09-21T15:23:30.672Z,96731.63
2022-09-21T15:26:02.818Z,96740.44
2022-09-21T15:28:51.950Z,96734.50
2022-09-21T15:31:24.951Z,96734.97
2022-09-21T15:33:54.796Z,96748.28
2022-09-21T15:36:25.244Z,96748.44
2022-09-21T15:38:54.183Z,96746.81
2022-09-21T15:41:41.133Z,96747.75
2022-09-21T15:44:15.587Z,96751.41
2022-09-21T15:46:45.452Z,96750.84
2022-09-21T15:49:21.308Z,96757.25
2022-09-21T15:51:53.257Z,96752.47
2022-09-21T15:54:32.029Z,96764.88
2022-09-21T15:57:04.667Z,96764.16
2022-09-21T15:59:35.842Z,96764.81
2022-09-21T16:02:13.916Z,96757.88
2022-09-21T16:04:49.373Z,96753.47
2022-09-21T16:07:27.222Z,96750.97
2022-09-21T16:09:55.248Z,96755.13
2022-09-21T16:12:47.408Z,96765.63
2022-09-21T16:15:18.775Z,96764.28
2022-09-21T16:18:01.460Z,96771.06
2022-09-21T16:20:45.735Z,96769.91
2022-09-21T16:23:16.311Z,96772.91
2022-09-21T16:25:44.875Z,96752.50
2022-09-21T16:28:31.998Z,96686.00
2022-09-21T16:31:00.355Z,96758.38
2022-09-21T16:33:41.200Z,96773.03
2022-09-21T16:36:44.091Z,96775.34
2022-09-21T16:39:15.647Z,96773.84
2022-09-21T16:41:48.447Z,96769.13
2022-09-21T16:44:22.852Z,96749.34
2022-09-21T16:46:56.183Z,96786.78
2022-09-21T16:49:30.466Z,96768.22
2022-09-21T16:52:00.308Z,96784.94
2022-09-21T16:54:28.791Z,96781.34
2022-09-21T16:56:58.535Z,96779.81
2022-09-21T16:59:27.390Z,96787.94
2022-09-21T17:01:56.980Z,96779.16
2022-09-21T17:04:27.767Z,96783.69
2022-09-21T17:06:58.087Z,96777.09
2022-09-21T17:09:33.487Z,96795.91
2022-09-21T17:12:06.974Z,96780.19
2022-09-21T17:14:37.107Z,96797.03
2022-09-21T17:17:08.500Z,96814.38
2022-09-21T17:19:36.926Z,96791.22
2022-09-21T17:22:06.915Z,96796.03
2022-09-21T17:24:50.151Z,96815.84
2022-09-21T17:27:19.763Z,96760.16
2022-09-21T17:29:49.410Z,96734.75
2022-09-21T17:32:20.281Z,96784.66
2022-09-21T17:34:50.213Z,96783.13
2022-09-21T17:37:18.293Z,96803.97
2022-09-21T17:39:48.616Z,96806.00
2022-09-21T17:42:19.752Z,96807.75
2022-09-21T17:45:12.897Z,96807.03
2022-09-21T17:47:41.528Z,96787.34
2022-09-21T17:50:20.676Z,96813.00
2022-09-21T17:53:06.267Z,96816.28
2022-09-21T17:55:36.336Z,96816.88
2022-09-21T17:58:16.936Z,96800.47
2022-09-21T18:00:52.940Z,96819.44
2022-09-21T18:03:23.403Z,96774.22
2022-09-21T18:05:57.351Z,96824.06
2022-09-21T18:08:27.026Z,96824.25
2022-09-21T18:11:08.117Z,96828.59
2022-09-21T18:13:44.427Z,96832.47
2022-09-21T18:16:27.118Z,96834.00
2022-09-21T18:19:05.474Z,96810.19
2022-09-21T18:21:36.826Z,96829.28
2022-09-21T18:24:14.817Z,96829.81
2022-09-21T18:26:44.920Z,96842.69
2022-09-21T18:29:38.870Z,96817.34
2022-09-21T18:32:23.096Z,96841.47
2022-09-21T18:35:10.549Z,96847.78
2022-09-21T18:37:43.987Z,96830.97
2022-09-21T18:40:21.942Z,96845.22
2022-09-21T18:42:55.893Z,96853.28
2022-09-21T18:45:27.192Z,96831.75
2022-09-21T18:48:06.963Z,96848.78
2022-09-21T18:50:38.492Z,96762.75
2022-09-21T18:53:13.260Z,96844.69
2022-09-21T18:55:42.305Z,96851.31
2022-09-21T18:58:17.101Z,96861.91
2022-09-21T19:00:45.969Z,96853.41
2022-09-21T19:03:18.341Z,96856.69
2022-09-21T19:05:55.509Z,96852.19
2022-09-21T19:08:29.634Z,96825.75
2022-09-21T19:11:03.801Z,96850.69
2022-09-21T19:13:41.564Z,96853.78
2022-09-21T19:16:16.508Z,96852.78
2022-09-21T19:18:50.024Z,96852.69
2022-09-21T19:21:24.026Z,96852.69
2022-09-21T19:24:06.255Z,96847.94
2022-09-21T19:26:40.181Z,96761.22
2022-09-21T19:29:25.430Z,96834.69
2022-09-21T19:31:53.667Z,96853.13
2022-09-21T19:34:22.012Z,96843.16
2022-09-21T19:36:51.261Z,96832.25
2022-09-21T19:39:19.834Z,96829.63
2022-09-21T19:41:56.050Z,96814.81
2022-09-21T19:44:38.841Z,96830.56
2022-09-21T19:47:12.835Z,96845.81
2022-09-21T19:49:48.060Z,96850.66
2022-09-21T19:52:18.178Z,96849.50
2022-09-21T19:55:04.375Z,96789.28
2022-09-21T19:57:50.079Z,96829.06
2022-09-21T20:00:21.186Z,96851.16
2022-09-21T20:02:57.749Z,96853.34
2022-09-21T20:05:41.522Z,96836.34
2022-09-21T20:08:14.538Z,96851.69
2022-09-21T20:11:06.745Z,96851.31
2022-09-21T20:13:45.839Z,96847.00
2022-09-21T20:16:27.195Z,96832.84
2022-09-21T20:19:00.069Z,96768.97
2022-09-21T20:21:35.154Z,96867.16
2022-09-21T20:24:04.715Z,96823.56
2022-09-21T20:26:33.005Z,96861.56
2022-09-21T20:29:01.557Z,96854.25
2022-09-21T20:31:30.970Z,96854.97
2022-09-21T20:33:58.963Z,96834.50
2022-09-21T20:36:26.916Z,96845.47
2022-09-21T20:38:56.811Z,96851.44
2022-09-21T20:41:25.091Z,96844.03
2022-09-21T20:43:53.121Z,96851.75
2022-09-21T20:46:21.337Z,96850.28
2022-09-21T20:49:00.267Z,96847.00
2022-09-21T20:51:28.489Z,96844.53
2022-09-21T20:53:56.534Z,96850.31
2022-09-21T20:56:24.579Z,96846.34
2022-09-21T20:58:52.610Z,96834.25
2022-09-21T21:01:20.628Z,96844.88
2022-09-21T21:03:51.013Z,96830.16
2022-09-21T21:06:19.814Z,96846.13
2022-09-21T21:08:48.175Z,96814.38
2022-09-21T21:11:16.216Z,96838.47
2022-09-21T21:13:44.349Z,96845.56
2022-09-21T21:16:12.704Z,96844.06
2022-09-21T21:18:41.408Z,96830.81
2022-09-21T21:21:10.832Z,96837.25
2022-09-21T21:23:52.835Z,96839.03
2022-09-21T21:26:23.950Z,96841.59
2022-09-21T21:29:01.629Z,96842.34
2022-09-21T21:31:29.693Z,96838.38
2022-09-21T21:33:57.772Z,96821.94
2022-09-21T21:36:27.215Z,96830.31
2022-09-21T21:38:55.257Z,96838.63
2022-09-21T21:41:23.286Z,96844.94
2022-09-21T21:43:51.291Z,96787.03
2022-09-21T21:46:19.617Z,96826.97
2022-09-21T21:48:47.856Z,96826.00
2022-09-21T21:51:16.176Z,96847.00
2022-09-21T21:53:46.089Z,96851.44
2022-09-21T21:56:16.169Z,96835.91
2022-09-21T21:58:44.793Z,96839.34
2022-09-21T22:01:13.933Z,96808.91
2022-09-21T22:03:42.599Z,96837.97
2022-09-21T22:06:11.755Z,96827.34
2022-09-21T22:08:41.080Z,96833.94
2022-09-21T22:11:10.700Z,96841.81
2022-09-21T22:13:40.161Z,96842.97
2022-09-21T22:16:10.037Z,96843.03
2022-09-21T22:18:38.094Z,96839.00
2022-09-21T22:21:09.086Z,96847.69
2022-09-21T22:23:37.091Z,96825.25
2022-09-21T22:26:07.346Z,96838.91
2022-09-21T22:28:37.634Z,96846.25
2022-09-21T22:31:09.762Z,96844.22
2022-09-21T22:33:38.707Z,96820.44
2022-09-21T22:36:08.754Z,96842.47
2022-09-21T22:38:42.581Z,96820.38
2022-09-21T22:41:12.458Z,96814.38
2022-09-21T22:43:42.199Z,96832.88
2022-09-21T22:46:10.680Z,96829.25
2022-09-21T22:48:38.986Z,96810.91
2022-09-21T22:51:07.066Z,96778.19
2022-09-21T22:53:35.116Z,96791.00
2022-09-21T22:56:04.956Z,96800.38
2022-09-21T22:58:33.879Z,96799.97
2022-09-21T23:01:08.354Z,96816.13
2022-09-21T23:03:37.127Z,96723.09
2022-09-21T23:06:05.449Z,96713.72
2022-09-21T23:08:33.952Z,96799.56
2022-09-21T23:11:09.779Z,96806.53
2022-09-21T23:13:37.885Z,96805.50
2022-09-21T23:16:09.379Z,96816.47
2022-09-21T23:18:38.099Z,96798.44
2022-09-21T23:21:08.590Z,96795.69
2022-09-21T23:23:36.644Z,96799.16
2022-09-21T23:26:06.793Z,96793.59
2022-09-21T23:28:35.567Z,96793.59
2022-09-21T23:31:06.233Z,96791.28
2022-09-21T23:33:37.112Z,96791.03
2022-09-21T23:36:06.523Z,96792.75
2022-09-21T23:38:34.870Z,96724.38
2022-09-21T23:41:04.941Z,96791.69
2022-09-21T23:43:33.199Z,96781.16
2022-09-21T23:46:01.782Z,96704.59
2022-09-21T23:48:30.150Z,96788.22
2022-09-21T23:50:59.985Z,96704.78
2022-09-21T23:53:29.077Z,96775.13
2022-09-21T23:55:57.714Z,96760.16
2022-09-21T23:58:26.498Z,96782.59
